Time;durP1;ratioP1;P1;durP2;ratioP2;P2;SDS_P1;SDS_P2;PMS_P1;PMS_P2;Temp;Humidity;BMP_temperature;BMP_pressure;BME280_temperature;BME280_humidity;BME280_pressure;Samples;Min_cycle;Max_cycle;Signal;HPM_P1;HPM_P2
2022/11/04 00:01:32;;;;;;;1.50;1.00;;;10.60;99.90;;;;;;5031957;28;20808;-77
2022/11/04 00:04:00;;;;;;;0.50;0.50;;;10.60;99.90;;;;;;5031528;28;20285;-78
2022/11/04 00:06:27;;;;;;;1.70;1.00;;;10.60;99.90;;;;;;5032104;28;20633;-79
2022/11/04 00:08:56;;;;;;;0.90;0.80;;;10.60;99.90;;;;;;5032272;28;20318;-79
2022/11/04 00:14:09;;;;;;;0.60;0.60;;;10.60;99.90;;;;;;5031466;28;20222;-78
2022/11/04 00:19:22;;;;;;;1.90;1.23;;;10.60;99.90;;;;;;5031582;28;20238;-74
2022/11/04 00:30:07;;;;;;;0.60;0.57;;;10.60;99.90;;;;;;5031372;28;20859;-79
2022/11/04 00:35:20;;;;;;;0.50;0.50;;;10.60;99.90;;;;;;5031118;28;20695;-78
2022/11/04 00:37:47;;;;;;;1.02;0.93;;;10.60;99.90;;;;;;5031594;28;20281;-80
2022/11/04 00:40:15;;;;;;;3.70;1.10;;;10.60;99.90;;;;;;5030962;28;20308;-78
2022/11/04 00:42:44;;;;;;;2.05;1.05;;;10.60;99.90;;;;;;5031808;28;20632;-78
2022/11/04 00:45:11;;;;;;;1.23;1.13;;;10.60;99.90;;;;;;5030883;28;20537;-80
2022/11/04 00:47:38;;;;;;;3.10;0.68;;;10.60;99.90;;;;;;5031475;28;20200;-79
2022/11/04 00:50:06;;;;;;;0.75;0.75;;;10.60;99.90;;;;;;5031370;28;20247;-79
2022/11/04 00:52:35;;;;;;;0.50;0.50;;;10.50;99.90;;;;;;5034198;28;20695;-78
2022/11/04 00:55:02;;;;;;;0.60;0.50;;;10.60;99.90;;;;;;5035237;28;20317;-78
2022/11/04 00:57:28;;;;;;;1.20;0.98;;;10.60;99.90;;;;;;5035232;28;20290;-80
2022/11/04 00:59:55;;;;;;;0.70;0.70;;;10.60;99.90;;;;;;5034970;28;20219;-79
2022/11/04 01:02:22;;;;;;;0.85;0.50;;;10.60;99.90;;;;;;5035492;28;20597;-80
2022/11/04 01:04:49;;;;;;;4.55;1.10;;;10.50;99.90;;;;;;5034962;28;20198;-79
2022/11/04 01:07:16;;;;;;;0.80;0.50;;;10.50;99.90;;;;;;5035156;28;20204;-79
2022/11/04 01:09:44;;;;;;;0.50;0.50;;;10.50;99.90;;;;;;5035196;28;20596;-79
2022/11/04 01:12:11;;;;;;;0.50;0.50;;;10.50;99.90;;;;;;5034995;28;20199;-79
2022/11/04 01:14:38;;;;;;;1.13;1.05;;;10.50;99.90;;;;;;5034429;28;20202;-79
2022/11/04 01:17:05;;;;;;;1.42;1.35;;;10.50;99.90;;;;;;5035064;28;20198;-79
2022/11/04 01:19:31;;;;;;;1.90;1.55;;;10.50;99.90;;;;;;5035098;28;20715;-80
2022/11/04 01:21:58;;;;;;;4.10;0.65;;;10.50;99.90;;;;;;5034611;28;20192;-79
2022/11/04 01:24:25;;;;;;;1.17;1.08;;;10.50;99.90;;;;;;5034756;28;20198;-79
2022/11/04 01:26:53;;;;;;;0.80;0.75;;;10.50;99.90;;;;;;5034778;28;20195;-80
2022/11/04 01:29:20;;;;;;;1.13;1.13;;;10.40;99.90;;;;;;5034865;28;20208;-77
2022/11/04 01:31:47;;;;;;;2.15;1.15;;;10.40;99.90;;;;;;5034680;28;20203;-78
2022/11/04 01:34:14;;;;;;;1.02;0.75;;;10.40;99.90;;;;;;5034521;28;20321;-78
2022/11/04 01:36:41;;;;;;;2.08;0.60;;;10.30;99.90;;;;;;5034234;28;20199;-80
2022/11/04 01:39:07;;;;;;;1.30;0.95;;;10.30;99.90;;;;;;5034518;28;20310;-79
2022/11/04 01:41:34;;;;;;;0.60;0.60;;;10.30;99.90;;;;;;5034596;28;20282;-79
2022/11/04 01:44:04;;;;;;;1.75;1.65;;;10.30;99.90;;;;;;5033558;28;20233;-78
2022/11/04 01:46:37;;;;;;;5.38;2.05;;;10.30;99.90;;;;;;5034189;28;20242;-75
2022/11/04 01:49:13;;;;;;;0.70;0.70;;;10.30;99.90;;;;;;5034194;28;20215;-79
2022/11/04 01:51:41;;;;;;;1.40;0.90;;;10.40;99.90;;;;;;5034609;28;20227;-79
2022/11/04 01:54:10;;;;;;;0.70;0.70;;;10.40;99.90;;;;;;5034066;28;20294;-79
2022/11/04 01:56:38;;;;;;;2.15;1.88;;;10.40;99.90;;;;;;5034342;28;20294;-79
2022/11/04 01:59:11;;;;;;;1.20;1.10;;;10.40;99.90;;;;;;5034149;28;20257;-79
2022/11/04 02:01:38;;;;;;;4.93;1.42;;;10.40;99.90;;;;;;5034214;28;20321;-78
2022/11/04 02:06:48;;;;;;;0.75;0.75;;;10.40;99.90;;;;;;5033212;28;20191;-80
2022/11/04 02:09:17;;;;;;;0.50;0.40;;;10.40;99.90;;;;;;5034146;28;20219;-79
2022/11/04 02:14:30;;;;;;;1.13;0.80;;;10.50;99.90;;;;;;5033700;28;20179;-74
2022/11/04 02:17:05;;;;;;;0.60;0.60;;;10.40;99.90;;;;;;5033748;28;20302;-79
2022/11/04 02:20:04;;;;;;;0.80;0.70;;;10.40;99.90;;;;;;5033661;28;20218;-79
2022/11/04 02:22:56;;;;;;;1.65;1.33;;;10.30;99.90;;;;;;5030654;28;20199;-78
2022/11/04 02:25:32;;;;;;;0.68;0.60;;;10.30;99.90;;;;;;5026069;28;20285;-78
2022/11/04 02:28:37;;;;;;;1.55;1.48;;;10.20;99.90;;;;;;5033523;28;20190;-79
2022/11/04 02:31:12;;;;;;;0.73;0.73;;;10.20;99.90;;;;;;5033632;28;20223;-78
2022/11/04 02:33:46;;;;;;;1.73;1.60;;;10.20;99.90;;;;;;5033016;28;20187;-78
2022/11/04 02:36:22;;;;;;;0.95;0.63;;;10.20;99.90;;;;;;5033468;28;20195;-79
2022/11/04 02:38:53;;;;;;;5.50;2.25;;;10.20;99.90;;;;;;5033364;28;20739;-79
2022/11/04 02:41:28;;;;;;;1.13;0.88;;;10.20;99.90;;;;;;5033485;28;20210;-79
2022/11/04 02:44:08;;;;;;;0.50;0.50;;;10.10;99.90;;;;;;5032287;28;20241;-78
2022/11/04 02:46:40;;;;;;;0.98;0.90;;;10.00;99.90;;;;;;5032774;28;20245;-79
2022/11/04 02:49:12;;;;;;;1.88;1.05;;;9.90;99.90;;;;;;5032877;28;20306;-77
2022/11/04 02:51:43;;;;;;;1.63;1.30;;;9.80;99.90;;;;;;5033068;28;20332;-79
2022/11/04 02:54:14;;;;;;;1.10;0.85;;;9.80;99.90;;;;;;5033168;28;20275;-79
2022/11/04 02:56:45;;;;;;;0.55;0.45;;;9.80;99.90;;;;;;5033129;28;20176;-79
2022/11/04 02:59:17;;;;;;;1.55;0.75;;;9.70;99.90;;;;;;5032927;28;20577;-79
2022/11/04 03:01:49;;;;;;;2.42;1.13;;;9.70;99.90;;;;;;5033147;28;20779;-78
2022/11/04 03:04:19;;;;;;;8.50;1.63;;;9.70;99.90;;;;;;5032307;28;20286;-78
2022/11/04 03:06:50;;;;;;;0.60;0.50;;;9.60;99.90;;;;;;5032820;28;20179;-78
2022/11/04 03:09:18;;;;;;;0.70;0.70;;;9.60;99.90;;;;;;5032247;28;20306;-79
2022/11/04 03:11:52;;;;;;;1.25;1.17;;;9.60;99.90;;;;;;5032673;28;20554;-78
2022/11/04 03:14:24;;;;;;;0.82;0.82;;;9.60;99.90;;;;;;5032368;28;20272;-79
2022/11/04 03:16:57;;;;;;;2.15;1.67;;;9.50;99.90;;;;;;5032297;28;20195;-80
2022/11/04 03:19:28;;;;;;;0.80;0.80;;;9.50;99.90;;;;;;5032295;28;20223;-79
2022/11/04 03:21:59;;;;;;;2.55;2.03;;;9.40;99.90;;;;;;5032079;28;20274;-80
2022/11/04 03:24:27;;;;;;;1.30;0.77;;;9.40;99.90;;;;;;5032152;28;20195;-78
2022/11/04 03:27:00;;;;;;;1.27;1.27;;;9.40;99.90;;;;;;5032423;28;20294;-79
2022/11/04 03:29:31;;;;;;;0.68;0.68;;;9.40;99.90;;;;;;5032079;28;20216;-78
2022/11/04 03:32:07;;;;;;;0.90;0.90;;;9.40;99.90;;;;;;5032376;28;20294;-79
2022/11/04 03:34:35;;;;;;;0.50;0.50;;;9.40;99.90;;;;;;5035122;28;20175;-80
2022/11/04 03:37:02;;;;;;;0.60;0.50;;;9.40;99.90;;;;;;5051692;28;20201;-80
2022/11/04 03:39:29;;;;;;;1.17;0.75;;;9.30;99.90;;;;;;5052042;28;20211;-78
2022/11/04 03:41:58;;;;;;;1.80;0.60;;;9.30;99.90;;;;;;5051938;28;20293;-78
2022/11/04 03:44:26;;;;;;;1.00;1.00;;;9.30;99.90;;;;;;5050709;28;20289;-78
2022/11/04 03:46:53;;;;;;;0.80;0.80;;;9.30;99.90;;;;;;5051488;28;20573;-79
2022/11/04 03:49:23;;;;;;;1.67;0.93;;;9.30;99.90;;;;;;5051339;28;20622;-78
2022/11/04 03:51:51;;;;;;;0.60;0.50;;;9.20;99.90;;;;;;5051598;28;20198;-79
2022/11/04 03:54:19;;;;;;;0.50;0.40;;;9.20;99.90;;;;;;5051002;28;20202;-78
2022/11/04 03:57:20;;;;;;;0.60;0.50;;;9.20;99.90;;;;;;5051881;28;20277;-79
2022/11/04 04:00:03;;;;;;;0.60;0.50;;;9.20;99.90;;;;;;5085982;22;20218;-77
2022/11/04 04:02:41;;;;;;;0.50;0.50;;;9.20;99.90;;;;;;5053011;28;20234;-77
2022/11/04 04:05:16;;;;;;;0.73;0.63;;;9.10;99.90;;;;;;5053667;28;20226;-78
2022/11/04 04:07:48;;;;;;;0.65;0.65;;;9.10;99.90;;;;;;5054511;28;20178;-78
2022/11/04 04:13:09;;;;;;;3.00;1.95;;;9.00;99.90;;;;;;5054607;28;20241;-77
2022/11/04 04:15:52;;;;;;;8.98;1.63;;;9.00;99.90;;;;;;5053586;28;20687;-78
2022/11/04 04:18:26;;;;;;;0.70;0.60;;;9.00;99.90;;;;;;5054574;28;20229;-77
2022/11/04 04:20:58;;;;;;;0.60;0.40;;;9.00;99.90;;;;;;5054392;28;20296;-77
2022/11/04 04:29:01;;;;;;;0.50;0.40;;;8.90;99.90;;;;;;5054441;28;20177;-78
2022/11/04 04:34:15;;;;;;;0.50;0.40;;;8.80;99.90;;;;;;5053980;28;20310;-77
2022/11/04 04:36:47;;;;;;;0.90;0.80;;;8.80;99.90;;;;;;5054308;28;20703;-77
2022/11/04 04:45:05;;;;;;;0.80;0.80;;;8.80;99.90;;;;;;5054315;28;20648;-78
2022/11/04 04:47:39;;;;;;;0.60;0.50;;;8.80;99.90;;;;;;5054558;28;20217;-78
2022/11/04 04:50:07;;;;;;;0.70;0.70;;;8.70;99.90;;;;;;5054139;28;20281;-77
2022/11/04 04:52:38;;;;;;;1.50;1.40;;;8.70;99.90;;;;;;5053080;28;20204;-78
2022/11/04 04:55:07;;;;;;;0.60;0.60;;;8.80;99.90;;;;;;5053792;28;20281;-77
2022/11/04 04:57:34;;;;;;;0.82;0.75;;;8.80;99.90;;;;;;5053287;28;20291;-77
2022/11/04 05:00:00;;;;;;;0.80;0.75;;;8.70;99.90;;;;;;5052350;28;20228;-78
2022/11/04 05:02:27;;;;;;;2.30;0.70;;;8.70;99.90;;;;;;5053194;28;20739;-78
2022/11/04 05:04:55;;;;;;;0.65;0.65;;;8.70;99.90;;;;;;5053072;28;20285;-78
2022/11/04 05:07:22;;;;;;;0.55;0.52;;;8.70;99.90;;;;;;5053537;28;20218;-76
2022/11/04 05:09:50;;;;;;;0.50;0.40;;;8.70;99.90;;;;;;5052488;28;20310;-77
2022/11/04 05:12:17;;;;;;;0.50;0.50;;;8.70;99.90;;;;;;5052939;28;20195;-77
2022/11/04 05:14:46;;;;;;;0.50;0.40;;;8.70;99.90;;;;;;5052255;28;20208;-77
2022/11/04 05:17:13;;;;;;;8.25;1.00;;;8.70;99.90;;;;;;5052404;28;20227;-78
2022/11/04 05:19:40;;;;;;;0.50;0.50;;;8.70;99.90;;;;;;5052080;28;20245;-78
2022/11/04 05:22:07;;;;;;;0.90;0.50;;;8.70;99.90;;;;;;5051266;28;20195;-78
2022/11/04 05:24:33;;;;;;;0.90;0.90;;;8.80;99.90;;;;;;5051410;28;20537;-78
2022/11/04 05:27:03;;;;;;;0.70;0.70;;;8.70;99.90;;;;;;5051527;28;20290;-78
2022/11/04 05:29:30;;;;;;;0.60;0.50;;;8.70;99.90;;;;;;5051689;28;20233;-78
2022/11/04 05:31:57;;;;;;;0.50;0.40;;;8.70;99.90;;;;;;5051972;28;20285;-78
2022/11/04 05:34:24;;;;;;;0.80;0.80;;;8.70;99.90;;;;;;5051432;28;20199;-78
2022/11/04 05:36:51;;;;;;;0.50;0.40;;;8.70;99.90;;;;;;5054268;28;20268;-76
2022/11/04 05:39:17;;;;;;;1.70;1.60;;;8.70;99.90;;;;;;5055860;28;20218;-78
2022/11/04 05:41:44;;;;;;;0.50;0.40;;;8.80;99.90;;;;;;5055624;28;20273;-79
2022/11/04 05:44:14;;;;;;;0.55;0.47;;;8.80;99.90;;;;;;5055140;28;20198;-79
2022/11/04 05:46:41;;;;;;;0.50;0.40;;;8.80;99.90;;;;;;5054595;28;20244;-79
2022/11/04 05:49:09;;;;;;;0.50;0.40;;;8.80;99.90;;;;;;5057316;28;20301;-78
2022/11/04 05:51:36;;;;;;;0.63;0.60;;;8.80;99.90;;;;;;5054324;28;20221;-77
2022/11/04 05:54:03;;;;;;;0.50;0.40;;;8.80;99.90;;;;;;5054329;28;20707;-77
2022/11/04 05:56:29;;;;;;;0.50;0.40;;;8.80;99.90;;;;;;5054488;28;20765;-78
2022/11/04 05:58:56;;;;;;;0.50;0.40;;;8.80;99.90;;;;;;5054133;28;20199;-77
2022/11/04 06:01:28;;;;;;;0.50;0.40;;;8.70;99.90;;;;;;5053984;28;20233;-78
2022/11/04 06:03:55;;;;;;;0.50;0.40;;;8.70;99.90;;;;;;5053697;28;20285;-77
2022/11/04 06:06:24;;;;;;;0.95;0.95;;;8.60;99.90;;;;;;5054230;28;20195;-77
2022/11/04 06:08:51;;;;;;;0.50;0.40;;;8.60;99.90;;;;;;5054301;28;20564;-78
2022/11/04 06:11:18;;;;;;;0.50;0.40;;;8.60;99.90;;;;;;5054280;28;20210;-78
2022/11/04 06:13:45;;;;;;;0.50;0.40;;;8.60;99.90;;;;;;5035725;28;20291;-78
2022/11/04 06:16:12;;;;;;;0.50;0.40;;;8.60;99.90;;;;;;5020428;28;20207;-78
2022/11/04 06:18:40;;;;;;;0.50;0.40;;;8.60;99.90;;;;;;5027939;28;20300;-79
2022/11/04 06:21:20;;;;;;;0.50;0.40;;;8.70;99.90;;;;;;5035448;28;20242;-78
2022/11/04 06:23:47;;;;;;;0.50;0.40;;;8.80;99.90;;;;;;5035040;28;20203;-77
2022/11/04 06:26:14;;;;;;;1.02;1.02;;;8.80;99.90;;;;;;5034072;28;20294;-76
2022/11/04 06:28:41;;;;;;;0.50;0.40;;;8.90;99.90;;;;;;5033807;28;20200;-77
2022/11/04 06:31:10;;;;;;;0.50;0.40;;;8.90;99.90;;;;;;5033052;28;20585;-76
2022/11/04 06:33:37;;;;;;;0.50;0.40;;;9.00;99.90;;;;;;5032521;28;20729;-76
2022/11/04 06:36:07;;;;;;;0.50;0.40;;;9.00;99.90;;;;;;5032289;28;20204;-76
2022/11/04 06:38:36;;;;;;;0.50;0.40;;;9.00;99.90;;;;;;5032795;28;20218;-77
2022/11/04 06:41:04;;;;;;;1.45;0.60;;;9.00;99.90;;;;;;5032303;28;20234;-76
2022/11/04 06:43:31;;;;;;;0.50;0.40;;;9.00;99.90;;;;;;5033108;28;20637;-76
2022/11/04 06:45:59;;;;;;;0.50;0.40;;;9.00;99.90;;;;;;5032470;28;20199;-77
2022/11/04 06:48:28;;;;;;;0.50;0.40;;;9.00;99.90;;;;;;5032901;28;20196;-77
2022/11/04 06:50:55;;;;;;;0.50;0.40;;;9.00;99.90;;;;;;5031553;28;20211;-77
2022/11/04 06:53:23;;;;;;;0.50;0.50;;;9.00;99.90;;;;;;5032824;28;20285;-77
2022/11/04 06:55:52;;;;;;;1.05;1.05;;;9.10;99.90;;;;;;5031768;28;20281;-77
2022/11/04 06:58:19;;;;;;;0.60;0.60;;;9.20;99.90;;;;;;5032463;28;20283;-77
2022/11/04 07:00:52;;;;;;;0.50;0.40;;;9.20;99.90;;;;;;5031808;28;20314;-75
2022/11/04 07:03:19;;;;;;;0.50;0.40;;;9.30;99.90;;;;;;5032254;28;20709;-77
2022/11/04 07:05:46;;;;;;;0.50;0.40;;;9.30;99.90;;;;;;5032209;28;20289;-77
2022/11/04 07:08:13;;;;;;;0.50;0.40;;;9.40;99.90;;;;;;5032292;28;20209;-76
2022/11/04 07:10:41;;;;;;;0.50;0.40;;;9.40;99.90;;;;;;5032572;28;20227;-77
2022/11/04 07:13:08;;;;;;;0.50;0.40;;;9.50;99.90;;;;;;5032255;28;20290;-77
2022/11/04 07:15:35;;;;;;;0.50;0.40;;;9.50;99.90;;;;;;5032871;28;20217;-76
2022/11/04 07:18:01;;;;;;;0.50;0.40;;;9.50;99.90;;;;;;5032635;28;20199;-77
2022/11/04 07:20:28;;;;;;;0.50;0.40;;;9.60;99.90;;;;;;5032719;28;20229;-77
2022/11/04 07:22:55;;;;;;;0.50;0.40;;;9.60;99.90;;;;;;5032887;28;20201;-76
2022/11/04 07:25:22;;;;;;;0.50;0.40;;;9.60;99.90;;;;;;5033017;28;20278;-77
2022/11/04 07:27:50;;;;;;;0.50;0.40;;;9.70;99.90;;;;;;5032313;28;20281;-77
2022/11/04 07:30:19;;;;;;;0.50;0.40;;;9.80;99.90;;;;;;5031701;28;20302;-76
2022/11/04 07:32:46;;;;;;;0.98;0.70;;;9.90;99.90;;;;;;5030628;28;20286;-77
2022/11/04 07:35:13;;;;;;;0.50;0.40;;;10.00;99.90;;;;;;5032535;28;20302;-76
2022/11/04 07:37:40;;;;;;;0.50;0.40;;;10.10;99.90;;;;;;5032179;28;20278;-75
2022/11/04 07:40:09;;;;;;;0.50;0.40;;;10.30;99.90;;;;;;5032140;28;20221;-76
2022/11/04 07:42:36;;;;;;;0.50;0.40;;;10.30;99.90;;;;;;5031632;28;20286;-77
2022/11/04 07:45:04;;;;;;;0.50;0.40;;;10.40;99.90;;;;;;5031695;28;20218;-77
2022/11/04 07:47:32;;;;;;;0.50;0.40;;;10.50;99.90;;;;;;5032478;28;20250;-77
2022/11/04 07:49:59;;;;;;;0.50;0.40;;;10.50;99.90;;;;;;5032390;28;20313;-77
2022/11/04 07:52:26;;;;;;;0.50;0.40;;;10.60;99.90;;;;;;5032346;28;20215;-76
2022/11/04 07:54:52;;;;;;;0.50;0.40;;;10.50;99.90;;;;;;5031810;28;20294;-76
2022/11/04 07:57:19;;;;;;;0.50;0.40;;;10.50;99.90;;;;;;5032232;28;20199;-76
2022/11/04 07:59:46;;;;;;;0.50;0.50;;;10.50;99.90;;;;;;5031775;28;20255;-76
2022/11/04 08:02:14;;;;;;;0.50;0.40;;;10.60;99.90;;;;;;5031474;28;20560;-77
2022/11/04 08:04:41;;;;;;;0.50;0.40;;;10.60;99.90;;;;;;5031302;28;20195;-77
2022/11/04 08:07:09;;;;;;;0.50;0.40;;;10.50;99.90;;;;;;5031924;28;20242;-76
2022/11/04 08:09:36;;;;;;;0.98;0.98;;;10.50;99.90;;;;;;5031730;28;20252;-77
2022/11/04 08:12:04;;;;;;;0.50;0.40;;;10.50;99.90;;;;;;5031656;28;20214;-77
2022/11/04 08:14:31;;;;;;;0.50;0.40;;;10.50;99.90;;;;;;5031105;28;20200;-77
2022/11/04 08:16:58;;;;;;;0.50;0.40;;;10.50;99.90;;;;;;5031894;28;20201;-77
2022/11/04 08:19:27;;;;;;;0.50;0.40;;;10.60;99.90;;;;;;5032054;28;20257;-76
2022/11/04 08:21:54;;;;;;;0.93;0.93;;;10.60;99.90;;;;;;5031404;28;20198;-77
2022/11/04 08:24:21;;;;;;;0.50;0.40;;;10.60;99.90;;;;;;5031553;28;20210;-77
2022/11/04 08:26:47;;;;;;;0.50;0.40;;;10.50;99.90;;;;;;5032099;28;20278;-76
2022/11/04 08:29:14;;;;;;;0.50;0.40;;;10.60;99.90;;;;;;5032191;28;20246;-76
2022/11/04 08:31:41;;;;;;;0.50;0.40;;;10.60;99.90;;;;;;5031143;28;20225;-77
2022/11/04 08:34:08;;;;;;;0.50;0.40;;;10.70;99.90;;;;;;5031007;28;20625;-77
2022/11/04 08:36:39;;;;;;;0.50;0.40;;;10.90;99.90;;;;;;5031432;28;20223;-77
2022/11/04 08:39:08;;;;;;;0.50;0.40;;;11.00;99.90;;;;;;5031231;28;20226;-76
2022/11/04 08:41:36;;;;;;;0.50;0.40;;;11.00;99.90;;;;;;5030861;28;20195;-76
2022/11/04 08:44:04;;;;;;;0.50;0.40;;;11.00;99.90;;;;;;5031145;28;20191;-76
2022/11/04 08:46:34;;;;;;;0.50;0.40;;;10.90;99.90;;;;;;5031515;28;20195;-77
2022/11/04 08:49:01;;;;;;;0.50;0.40;;;10.80;99.90;;;;;;5031388;28;20246;-76
2022/11/04 08:51:29;;;;;;;0.50;0.40;;;10.70;99.90;;;;;;5031015;28;20298;-76
2022/11/04 08:53:58;;;;;;;0.50;0.40;;;10.70;99.90;;;;;;5031207;28;20202;-76
2022/11/04 08:56:27;;;;;;;0.50;0.40;;;10.60;99.90;;;;;;5030905;28;20196;-76
2022/11/04 08:58:54;;;;;;;0.50;0.40;;;10.50;99.90;;;;;;5031141;28;20576;-76
2022/11/04 09:01:22;;;;;;;0.50;0.40;;;10.40;99.90;;;;;;5031367;28;20601;-76
2022/11/04 09:03:49;;;;;;;0.50;0.50;;;10.40;99.90;;;;;;5030843;28;20349;-76
2022/11/04 09:06:19;;;;;;;0.70;0.70;;;10.40;99.90;;;;;;5031343;28;20303;-76
2022/11/04 09:08:46;;;;;;;0.50;0.40;;;10.40;99.90;;;;;;5032216;28;20479;-76
2022/11/04 09:11:15;;;;;;;0.70;0.60;;;10.40;99.90;;;;;;5032467;28;20758;-77
2022/11/04 09:13:43;;;;;;;0.50;0.40;;;10.40;99.90;;;;;;5036176;28;20290;-76
2022/11/04 09:16:11;;;;;;;0.80;0.70;;;10.40;99.90;;;;;;5036032;28;20197;-77
2022/11/04 09:18:38;;;;;;;0.50;0.40;;;10.40;99.90;;;;;;5035506;28;20610;-77
2022/11/04 09:21:07;;;;;;;0.50;0.40;;;10.60;99.90;;;;;;5035758;28;20302;-77
2022/11/04 09:23:34;;;;;;;0.50;0.40;;;10.90;99.90;;;;;;5035224;28;20732;-77
2022/11/04 09:26:08;;;;;;;0.50;0.40;;;11.70;99.90;;;;;;5035901;28;20836;-77
2022/11/04 09:28:36;;;;;;;0.50;0.40;;;12.40;99.90;;;;;;5035415;28;20346;-77
2022/11/04 09:31:08;;;;;;;0.90;0.60;;;12.70;99.90;;;;;;5035055;28;20229;-77
2022/11/04 09:33:34;;;;;;;0.50;0.37;;;12.60;99.90;;;;;;5035656;28;20793;-77
2022/11/04 09:36:01;;;;;;;0.50;0.40;;;12.60;99.90;;;;;;5035245;28;20468;-77
2022/11/04 09:38:28;;;;;;;0.50;0.40;;;12.60;99.90;;;;;;5035203;28;20669;-77
2022/11/04 09:40:56;;;;;;;0.50;0.40;;;12.70;99.90;;;;;;5036611;28;20489;-76
2022/11/04 09:43:36;;;;;;;0.50;0.50;;;12.90;99.90;;;;;;5035935;28;20449;-75
2022/11/04 09:46:06;;;;;;;0.50;0.30;;;13.00;99.90;;;;;;5035629;28;20863;-77
2022/11/04 09:48:38;;;;;;;0.50;0.40;;;12.70;99.90;;;;;;5034885;28;20438;-77
2022/11/04 09:51:06;;;;;;;0.60;0.50;;;12.50;99.90;;;;;;5033651;28;20594;-76
2022/11/04 09:53:40;;;;;;;0.50;0.40;;;12.50;99.90;;;;;;5034204;28;21014;-77
2022/11/04 09:56:16;;;;;;;0.50;0.40;;;12.40;99.90;;;;;;5034035;28;20540;-76
2022/11/04 09:58:43;;;;;;;0.50;0.40;;;12.30;99.90;;;;;;5034510;28;20452;-76
2022/11/04 10:01:26;;;;;;;0.50;0.30;;;12.30;99.90;;;;;;5077307;22;20507;-77
2022/11/04 10:04:18;;;;;;;0.50;0.40;;;12.30;99.90;;;;;;5071864;28;20444;-76
2022/11/04 10:07:06;;;;;;;5.03;2.37;;;12.40;99.90;;;;;;5073167;28;20200;-78
2022/11/04 10:09:43;;;;;;;0.50;0.40;;;12.40;99.90;;;;;;5074260;28;20470;-77
2022/11/04 10:12:21;;;;;;;0.50;0.40;;;12.40;99.90;;;;;;5053870;28;20480;-76
2022/11/04 10:15:32;;;;;;;0.50;0.40;;;12.70;99.90;;;;;;5054063;28;20449;-73
2022/11/04 10:18:14;;;;;;;10.30;1.80;;;13.00;99.90;;;;;;5053820;28;20480;-77
2022/11/04 10:20:52;;;;;;;0.50;0.40;;;13.30;99.90;;;;;;5053534;28;20484;-75
2022/11/04 10:23:23;;;;;;;0.50;0.43;;;13.50;99.90;;;;;;5054092;28;20508;-78
2022/11/04 10:25:56;;;;;;;0.50;0.40;;;13.70;99.90;;;;;;5053241;28;20524;-74
2022/11/04 10:28:30;;;;;;;0.50;0.30;;;13.90;99.90;;;;;;5054038;28;20671;-78
2022/11/04 10:30:56;;;;;;;0.50;0.40;;;13.90;99.90;;;;;;5053647;28;20544;-78
2022/11/04 10:33:30;;;;;;;0.60;0.50;;;14.10;99.90;;;;;;5053778;28;20530;-78
2022/11/04 10:36:01;;;;;;;1.23;0.63;;;14.60;99.90;;;;;;5053439;28;20889;-78
2022/11/04 10:38:35;;;;;;;0.50;0.40;;;15.40;99.90;;;;;;5053033;28;20555;-78
2022/11/04 10:41:05;;;;;;;0.50;0.40;;;16.20;99.90;;;;;;5053334;28;20457;-78
2022/11/04 10:43:36;;;;;;;0.50;0.30;;;16.60;99.90;;;;;;5053002;28;20531;-77
2022/11/04 10:46:17;;;;;;;0.50;0.30;;;16.90;99.90;;;;;;5053324;28;20540;-78
2022/11/04 10:48:50;;;;;;;1.17;0.73;;;17.20;99.90;;;;;;5054466;28;20417;-77
2022/11/04 10:51:22;;;;;;;0.50;0.30;;;17.50;99.90;;;;;;5055124;28;20481;-78
2022/11/04 10:53:54;;;;;;;0.50;0.30;;;17.70;99.90;;;;;;5054495;28;20970;-77
2022/11/04 10:56:31;;;;;;;0.60;0.50;;;17.60;99.90;;;;;;5054946;28;20481;-77
2022/11/04 10:59:04;;;;;;;0.50;0.40;;;17.10;99.90;;;;;;5054897;28;20443;-77
2022/11/04 11:01:34;;;;;;;0.50;0.40;;;16.90;99.90;;;;;;5053468;28;20499;-78
2022/11/04 11:04:07;;;;;;;0.50;0.30;;;17.10;99.90;;;;;;5052997;28;20814;-77
2022/11/04 11:06:35;;;;;;;0.50;0.40;;;17.40;99.90;;;;;;5053700;28;20528;-77
2022/11/04 11:09:18;;;;;;;0.50;0.40;;;17.40;99.90;;;;;;5053374;28;20528;-77
2022/11/04 11:11:47;;;;;;;0.50;0.30;;;17.00;99.90;;;;;;5052691;28;20477;-76
2022/11/04 11:14:32;;;;;;;0.50;0.30;;;16.80;99.90;;;;;;5052765;28;20440;-77
2022/11/04 11:17:22;;;;;;;0.50;0.30;;;16.50;99.90;;;;;;5053644;28;20421;-78
2022/11/04 11:19:55;;;;;;;0.50;0.30;;;16.30;99.90;;;;;;5052575;28;20522;-78
2022/11/04 11:22:38;;;;;;;6.67;0.67;;;16.40;99.90;;;;;;5052772;28;20516;-77
2022/11/04 11:25:22;;;;;;;0.50;0.30;;;16.20;99.90;;;;;;5051914;28;20973;-78
2022/11/04 11:27:51;;;;;;;0.50;0.40;;;16.00;99.90;;;;;;5052558;28;20976;-78
2022/11/04 11:30:23;;;;;;;2.20;0.40;;;15.50;99.90;;;;;;5052198;28;21012;-78
2022/11/04 11:32:54;;;;;;;0.50;0.30;;;15.10;99.90;;;;;;5052022;28;20472;-78
2022/11/04 11:35:26;;;;;;;0.50;0.40;;;14.80;99.90;;;;;;5051941;28;20465;-78
2022/11/04 11:37:54;;;;;;;0.50;0.40;;;14.60;99.90;;;;;;5051684;28;20512;-78
2022/11/04 11:40:26;;;;;;;0.50;0.40;;;14.30;99.90;;;;;;5052688;28;20485;-78
2022/11/04 11:42:54;;;;;;;0.50;0.30;;;14.20;99.90;;;;;;5052657;28;20441;-78
2022/11/04 11:45:24;;;;;;;0.50;0.40;;;14.10;99.90;;;;;;5052381;28;20447;-78
2022/11/04 11:47:53;;;;;;;0.50;0.40;;;14.00;99.90;;;;;;5052665;28;21259;-78
2022/11/04 11:50:29;;;;;;;0.90;0.90;;;13.90;99.90;;;;;;5052786;28;20457;-78
2022/11/04 11:53:12;;;;;;;1.10;1.00;;;13.80;99.90;;;;;;5052912;28;20820;-77
2022/11/04 11:55:49;;;;;;;0.50;0.40;;;13.70;99.90;;;;;;5051533;28;20950;-77
2022/11/04 11:58:28;;;;;;;0.50;0.40;;;13.60;99.90;;;;;;5052480;28;20457;-77
2022/11/04 12:01:01;;;;;;;0.50;0.40;;;13.50;99.90;;;;;;5051978;28;21004;-78
2022/11/04 12:03:34;;;;;;;0.63;0.50;;;13.40;99.90;;;;;;5052785;28;20508;-79
2022/11/04 12:06:16;;;;;;;0.50;0.40;;;13.40;99.90;;;;;;5053722;28;20876;-78
2022/11/04 12:09:04;;;;;;;0.50;0.40;;;13.50;99.90;;;;;;5053246;28;20500;-77
2022/11/04 12:11:41;;;;;;;0.50;0.40;;;13.50;99.90;;;;;;5053235;28;20457;-78
2022/11/04 12:14:15;;;;;;;0.50;0.40;;;13.60;99.90;;;;;;5053593;28;20946;-77
2022/11/04 12:16:50;;;;;;;0.50;0.40;;;13.70;99.90;;;;;;5054112;28;20445;-78
2022/11/04 12:19:39;;;;;;;0.50;0.40;;;13.80;99.90;;;;;;5054360;28;20559;-79
2022/11/04 12:22:14;;;;;;;0.50;0.40;;;13.90;99.90;;;;;;5052521;28;20447;-78
2022/11/04 12:24:52;;;;;;;0.50;0.30;;;14.00;99.90;;;;;;5052448;28;20431;-78
2022/11/04 12:27:26;;;;;;;0.50;0.40;;;14.30;99.90;;;;;;5055860;28;20705;-78
2022/11/04 12:30:03;;;;;;;0.50;0.40;;;14.40;99.90;;;;;;5061838;28;20468;-78
2022/11/04 12:32:41;;;;;;;0.50;0.30;;;14.60;99.90;;;;;;5052530;28;20970;-78
2022/11/04 12:35:23;;;;;;;0.50;0.30;;;14.60;99.90;;;;;;5052574;28;20515;-77
2022/11/04 12:38:02;;;;;;;0.50;0.30;;;14.60;99.90;;;;;;5052397;28;20536;-78
2022/11/04 12:40:35;;;;;;;0.50;0.50;;;14.50;99.90;;;;;;5052246;28;20461;-77
2022/11/04 12:43:14;;;;;;;0.50;0.40;;;14.50;99.90;;;;;;5053642;28;20938;-78
2022/11/04 12:45:58;;;;;;;0.50;0.50;;;14.50;99.90;;;;;;5052944;28;20528;-78
2022/11/04 12:48:43;;;;;;;1.90;0.90;;;14.30;99.90;;;;;;5055561;28;20532;-77
2022/11/04 12:51:17;;;;;;;0.50;0.40;;;14.40;99.90;;;;;;5057052;28;20548;-78
2022/11/04 12:54:04;;;;;;;0.50;0.30;;;14.40;99.90;;;;;;5057167;28;20738;-77
2022/11/04 12:56:37;;;;;;;0.50;0.40;;;14.50;99.90;;;;;;5058031;28;20424;-77
2022/11/04 12:59:30;;;;;;;0.50;0.33;;;14.50;99.90;;;;;;5058473;28;20441;-79
2022/11/04 13:01:59;;;;;;;0.50;0.30;;;14.30;99.90;;;;;;5059226;28;20480;-78
2022/11/04 13:04:31;;;;;;;0.77;0.60;;;14.40;99.90;;;;;;5059050;28;20536;-79
2022/11/04 13:07:03;;;;;;;0.50;0.30;;;14.60;99.90;;;;;;5058584;28;20481;-79
2022/11/04 13:09:37;;;;;;;0.50;0.33;;;14.70;99.90;;;;;;5057384;28;20481;-79
2022/11/04 13:12:09;;;;;;;0.50;0.40;;;14.70;99.90;;;;;;5057738;28;20479;-78
2022/11/04 13:14:42;;;;;;;0.50;0.30;;;14.80;99.90;;;;;;5058046;28;20827;-79
2022/11/04 13:17:14;;;;;;;0.50;0.40;;;14.90;99.90;;;;;;5057878;28;20497;-77
2022/11/04 13:19:46;;;;;;;0.50;0.40;;;15.00;99.90;;;;;;5058258;28;20493;-78
2022/11/04 13:22:18;;;;;;;0.50;0.40;;;15.10;99.90;;;;;;5057250;28;20518;-78
2022/11/04 13:24:51;;;;;;;0.50;0.40;;;15.50;99.90;;;;;;5057554;28;20974;-79
2022/11/04 13:27:22;;;;;;;0.50;0.30;;;16.20;99.90;;;;;;5057415;28;20448;-79
2022/11/04 13:29:51;;;;;;;0.50;0.40;;;17.00;99.90;;;;;;5057955;28;20488;-79
2022/11/04 13:32:25;;;;;;;0.50;0.30;;;17.30;99.90;;;;;;5058247;28;20897;-79
2022/11/04 13:34:57;;;;;;;0.50;0.30;;;17.40;99.90;;;;;;5057567;28;20429;-78
2022/11/04 13:37:28;;;;;;;0.50;0.30;;;17.10;99.90;;;;;;5057730;28;20449;-79
2022/11/04 13:39:59;;;;;;;0.50;0.40;;;16.70;99.90;;;;;;5057120;28;20883;-78
2022/11/04 13:43:36;;;;;;;1.73;0.63;;;16.30;99.90;;;;;;5056983;28;20516;-78
2022/11/04 13:45:47;;;;;;;2.27;2.17;;;16.00;99.90;;;;;;5057512;28;20682;-78
2022/11/04 13:48:19;;;;;;;0.50;0.30;;;15.40;99.90;;;;;;5057159;28;20441;-78
2022/11/04 13:50:56;;;;;;;0.73;0.67;;;15.10;99.90;;;;;;5057301;28;20543;-78